sensor_id;sensor_type;location;lat;lon;timestamp;temperature;humidity
83660;SHT30;73632;50.808;3.422;2024-03-02T00:00:36;5.94;88.39
83660;SHT30;73632;50.808;3.422;2024-03-02T00:03:02;5.99;88.01
83660;SHT30;73632;50.808;3.422;2024-03-02T00:05:27;5.90;88.34
83660;SHT30;73632;50.808;3.422;2024-03-02T00:07:54;5.94;88.01
83660;SHT30;73632;50.808;3.422;2024-03-02T00:10:34;5.90;88.05
83660;SHT30;73632;50.808;3.422;2024-03-02T00:13:02;5.88;88.09
83660;SHT30;73632;50.808;3.422;2024-03-02T00:15:55;5.83;88.12
83660;SHT30;73632;50.808;3.422;2024-03-02T00:18:30;5.85;88.05
83660;SHT30;73632;50.808;3.422;2024-03-02T00:20:56;5.85;88.12
83660;SHT30;73632;50.808;3.422;2024-03-02T00:23:22;5.81;88.11
83660;SHT30;73632;50.808;3.422;2024-03-02T00:25:53;5.77;88.05
83660;SHT30;73632;50.808;3.422;2024-03-02T00:28:20;5.77;88.12
83660;SHT30;73632;50.808;3.422;2024-03-02T00:33:37;5.70;88.32
83660;SHT30;73632;50.808;3.422;2024-03-02T00:36:05;5.71;88.15
83660;SHT30;73632;50.808;3.422;2024-03-02T00:38:32;5.70;88.29
83660;SHT30;73632;50.808;3.422;2024-03-02T00:41:05;5.71;88.09
83660;SHT30;73632;50.808;3.422;2024-03-02T00:43:45;5.79;87.73
83660;SHT30;73632;50.808;3.422;2024-03-02T00:46:11;5.84;87.72
83660;SHT30;73632;50.808;3.422;2024-03-02T00:48:37;5.84;87.64
83660;SHT30;73632;50.808;3.422;2024-03-02T00:51:03;5.91;87.38
83660;SHT30;73632;50.808;3.422;2024-03-02T00:53:32;5.93;87.51
83660;SHT30;73632;50.808;3.422;2024-03-02T00:55:58;5.85;87.35
83660;SHT30;73632;50.808;3.422;2024-03-02T00:58:24;5.84;87.43
83660;SHT30;73632;50.808;3.422;2024-03-02T01:00:50;5.83;87.46
83660;SHT30;73632;50.808;3.422;2024-03-02T01:03:15;5.79;87.58
83660;SHT30;73632;50.808;3.422;2024-03-02T01:05:42;5.79;87.55
83660;SHT30;73632;50.808;3.422;2024-03-02T01:08:08;5.74;87.75
83660;SHT30;73632;50.808;3.422;2024-03-02T01:10:33;5.71;87.77
83660;SHT30;73632;50.808;3.422;2024-03-02T01:13:01;5.68;87.52
83660;SHT30;73632;50.808;3.422;2024-03-02T01:15:27;5.70;87.58
83660;SHT30;73632;50.808;3.422;2024-03-02T01:17:52;5.68;87.56
83660;SHT30;73632;50.808;3.422;2024-03-02T01:20:18;5.67;87.71
83660;SHT30;73632;50.808;3.422;2024-03-02T01:22:43;5.55;87.94
83660;SHT30;73632;50.808;3.422;2024-03-02T01:25:09;5.60;87.74
83660;SHT30;73632;50.808;3.422;2024-03-02T01:27:34;5.60;87.52
83660;SHT30;73632;50.808;3.422;2024-03-02T01:30:00;5.55;87.65
83660;SHT30;73632;50.808;3.422;2024-03-02T01:32:25;5.58;87.66
83660;SHT30;73632;50.808;3.422;2024-03-02T01:34:51;5.54;87.72
83660;SHT30;73632;50.808;3.422;2024-03-02T01:37:16;5.53;87.68
83660;SHT30;73632;50.808;3.422;2024-03-02T01:39:42;5.54;87.69
83660;SHT30;73632;50.808;3.422;2024-03-02T01:42:07;5.47;87.99
83660;SHT30;73632;50.808;3.422;2024-03-02T01:44:32;5.44;88.15
83660;SHT30;73632;50.808;3.422;2024-03-02T01:46:58;5.47;88.02
83660;SHT30;73632;50.808;3.422;2024-03-02T01:49:23;5.44;87.82
83660;SHT30;73632;50.808;3.422;2024-03-02T01:51:49;5.43;87.81
83660;SHT30;73632;50.808;3.422;2024-03-02T01:54:14;5.36;87.94
83660;SHT30;73632;50.808;3.422;2024-03-02T01:56:40;5.41;87.82
83660;SHT30;73632;50.808;3.422;2024-03-02T01:59:06;5.39;87.71
83660;SHT30;73632;50.808;3.422;2024-03-02T02:01:31;5.43;87.35
83660;SHT30;73632;50.808;3.422;2024-03-02T02:03:57;5.39;87.59
83660;SHT30;73632;50.808;3.422;2024-03-02T02:06:22;5.36;87.53
83660;SHT30;73632;50.808;3.422;2024-03-02T02:08:48;5.31;87.62
83660;SHT30;73632;50.808;3.422;2024-03-02T02:11:16;5.33;87.69
83660;SHT30;73632;50.808;3.422;2024-03-02T02:13:42;5.31;87.57
83660;SHT30;73632;50.808;3.422;2024-03-02T02:16:08;5.27;87.77
83660;SHT30;73632;50.808;3.422;2024-03-02T02:18:34;5.34;87.47
83660;SHT30;73632;50.808;3.422;2024-03-02T02:20:59;5.34;87.49
83660;SHT30;73632;50.808;3.422;2024-03-02T02:23:25;5.43;87.35
83660;SHT30;73632;50.808;3.422;2024-03-02T02:25:50;5.46;87.27
83660;SHT30;73632;50.808;3.422;2024-03-02T02:28:16;5.51;87.05
83660;SHT30;73632;50.808;3.422;2024-03-02T02:30:41;5.58;86.79
83660;SHT30;73632;50.808;3.422;2024-03-02T02:33:07;5.64;86.69
83660;SHT30;73632;50.808;3.422;2024-03-02T02:35:33;5.64;86.52
83660;SHT30;73632;50.808;3.422;2024-03-02T02:37:58;5.64;86.39
83660;SHT30;73632;50.808;3.422;2024-03-02T02:40:24;5.65;86.04
83660;SHT30;73632;50.808;3.422;2024-03-02T02:42:50;5.60;86.04
83660;SHT30;73632;50.808;3.422;2024-03-02T02:45:17;5.54;86.22
83660;SHT30;73632;50.808;3.422;2024-03-02T02:47:43;5.54;86.34
83660;SHT30;73632;50.808;3.422;2024-03-02T02:50:11;5.43;86.63
83660;SHT30;73632;50.808;3.422;2024-03-02T02:52:39;5.39;86.82
83660;SHT30;73632;50.808;3.422;2024-03-02T02:55:07;5.37;86.70
83660;SHT30;73632;50.808;3.422;2024-03-02T02:57:34;5.36;86.73
83660;SHT30;73632;50.808;3.422;2024-03-02T03:00:09;5.34;86.53
83660;SHT30;73632;50.808;3.422;2024-03-02T03:02:42;5.31;86.83
83660;SHT30;73632;50.808;3.422;2024-03-02T03:05:14;5.29;86.90
83660;SHT30;73632;50.808;3.422;2024-03-02T03:07:40;5.24;87.02
83660;SHT30;73632;50.808;3.422;2024-03-02T03:10:06;5.19;87.25
83660;SHT30;73632;50.808;3.422;2024-03-02T03:12:32;5.19;87.08
83660;SHT30;73632;50.808;3.422;2024-03-02T03:14:58;5.15;87.38
83660;SHT30;73632;50.808;3.422;2024-03-02T03:17:23;5.19;86.92
83660;SHT30;73632;50.808;3.422;2024-03-02T03:19:49;5.19;86.92
83660;SHT30;73632;50.808;3.422;2024-03-02T03:22:15;5.23;86.68
83660;SHT30;73632;50.808;3.422;2024-03-02T03:24:40;5.27;86.63
83660;SHT30;73632;50.808;3.422;2024-03-02T03:27:06;5.27;86.47
83660;SHT30;73632;50.808;3.422;2024-03-02T03:29:32;5.24;86.21
83660;SHT30;73632;50.808;3.422;2024-03-02T03:31:57;5.27;86.19
83660;SHT30;73632;50.808;3.422;2024-03-02T03:34:22;5.29;85.87
83660;SHT30;73632;50.808;3.422;2024-03-02T03:36:48;5.29;85.83
83660;SHT30;73632;50.808;3.422;2024-03-02T03:39:13;5.26;86.04
83660;SHT30;73632;50.808;3.422;2024-03-02T03:41:40;5.26;86.14
83660;SHT30;73632;50.808;3.422;2024-03-02T03:44:06;5.26;86.14
83660;SHT30;73632;50.808;3.422;2024-03-02T03:46:31;5.20;86.37
83660;SHT30;73632;50.808;3.422;2024-03-02T03:48:56;5.26;86.17
83660;SHT30;73632;50.808;3.422;2024-03-02T03:51:22;5.23;86.24
83660;SHT30;73632;50.808;3.422;2024-03-02T03:53:50;5.19;86.07
83660;SHT30;73632;50.808;3.422;2024-03-02T03:56:15;5.26;85.84
83660;SHT30;73632;50.808;3.422;2024-03-02T03:58:41;5.26;85.86
83660;SHT30;73632;50.808;3.422;2024-03-02T04:01:06;5.20;86.14
83660;SHT30;73632;50.808;3.422;2024-03-02T04:03:32;5.27;86.02
83660;SHT30;73632;50.808;3.422;2024-03-02T04:05:57;5.26;86.38
83660;SHT30;73632;50.808;3.422;2024-03-02T04:08:22;5.19;86.29
83660;SHT30;73632;50.808;3.422;2024-03-02T04:10:48;5.22;86.36
83660;SHT30;73632;50.808;3.422;2024-03-02T04:13:13;5.27;86.21
83660;SHT30;73632;50.808;3.422;2024-03-02T04:15:39;5.23;86.30
83660;SHT30;73632;50.808;3.422;2024-03-02T04:18:06;5.22;86.45
83660;SHT30;73632;50.808;3.422;2024-03-02T04:20:31;5.13;86.85
83660;SHT30;73632;50.808;3.422;2024-03-02T04:22:56;5.12;86.85
83660;SHT30;73632;50.808;3.422;2024-03-02T04:25:22;5.12;86.92
83660;SHT30;73632;50.808;3.422;2024-03-02T04:27:47;5.16;86.89
83660;SHT30;73632;50.808;3.422;2024-03-02T04:30:13;5.13;86.92
83660;SHT30;73632;50.808;3.422;2024-03-02T04:32:38;5.16;86.80
83660;SHT30;73632;50.808;3.422;2024-03-02T04:35:04;5.08;87.05
83660;SHT30;73632;50.808;3.422;2024-03-02T04:37:33;5.13;86.70
83660;SHT30;73632;50.808;3.422;2024-03-02T04:39:58;5.10;86.69
83660;SHT30;73632;50.808;3.422;2024-03-02T04:42:23;5.05;86.95
83660;SHT30;73632;50.808;3.422;2024-03-02T04:44:49;5.05;87.11
83660;SHT30;73632;50.808;3.422;2024-03-02T04:47:15;5.05;87.04
83660;SHT30;73632;50.808;3.422;2024-03-02T04:49:40;5.01;87.24
83660;SHT30;73632;50.808;3.422;2024-03-02T04:52:06;4.99;87.19
83660;SHT30;73632;50.808;3.422;2024-03-02T04:54:31;4.88;87.45
83660;SHT30;73632;50.808;3.422;2024-03-02T04:56:57;4.89;87.38
83660;SHT30;73632;50.808;3.422;2024-03-02T04:59:22;4.89;87.45
83660;SHT30;73632;50.808;3.422;2024-03-02T05:01:48;4.93;87.30
83660;SHT30;73632;50.808;3.422;2024-03-02T05:04:13;4.93;87.19
83660;SHT30;73632;50.808;3.422;2024-03-02T05:06:39;4.99;87.20
83660;SHT30;73632;50.808;3.422;2024-03-02T05:09:08;4.95;87.19
83660;SHT30;73632;50.808;3.422;2024-03-02T05:11:34;4.90;87.08
83660;SHT30;73632;50.808;3.422;2024-03-02T05:14:03;4.89;87.27
83660;SHT30;73632;50.808;3.422;2024-03-02T05:16:28;4.85;87.32
83660;SHT30;73632;50.808;3.422;2024-03-02T05:18:54;4.90;87.21
83660;SHT30;73632;50.808;3.422;2024-03-02T05:21:19;4.92;87.19
83660;SHT30;73632;50.808;3.422;2024-03-02T05:23:45;4.96;86.90
83660;SHT30;73632;50.808;3.422;2024-03-02T05:26:10;4.90;86.93
83660;SHT30;73632;50.808;3.422;2024-03-02T05:28:38;4.89;86.93
83660;SHT30;73632;50.808;3.422;2024-03-02T05:31:04;4.95;86.91
83660;SHT30;73632;50.808;3.422;2024-03-02T05:33:30;4.86;87.01
83660;SHT30;73632;50.808;3.422;2024-03-02T05:35:57;4.86;87.04
83660;SHT30;73632;50.808;3.422;2024-03-02T05:38:22;4.82;87.21
83660;SHT30;73632;50.808;3.422;2024-03-02T05:40:48;4.82;87.29
83660;SHT30;73632;50.808;3.422;2024-03-02T05:43:13;4.83;87.33
83660;SHT30;73632;50.808;3.422;2024-03-02T05:45:39;4.80;87.39
83660;SHT30;73632;50.808;3.422;2024-03-02T05:48:06;4.75;87.31
83660;SHT30;73632;50.808;3.422;2024-03-02T05:50:32;4.78;87.35
83660;SHT30;73632;50.808;3.422;2024-03-02T05:52:58;4.75;87.42
83660;SHT30;73632;50.808;3.422;2024-03-02T05:55:24;4.76;87.60
83660;SHT30;73632;50.808;3.422;2024-03-02T05:57:49;4.71;87.85
83660;SHT30;73632;50.808;3.422;2024-03-02T06:00:28;4.72;87.87
83660;SHT30;73632;50.808;3.422;2024-03-02T06:02:53;4.69;88.00
83660;SHT30;73632;50.808;3.422;2024-03-02T06:05:19;4.65;88.09
83660;SHT30;73632;50.808;3.422;2024-03-02T06:07:44;4.69;87.97
83660;SHT30;73632;50.808;3.422;2024-03-02T06:10:10;4.68;87.77
83660;SHT30;73632;50.808;3.422;2024-03-02T06:12:36;4.55;88.09
83660;SHT30;73632;50.808;3.422;2024-03-02T06:15:01;4.61;88.21
83660;SHT30;73632;50.808;3.422;2024-03-02T06:17:27;4.68;87.83
83660;SHT30;73632;50.808;3.422;2024-03-02T06:19:52;4.64;87.85
83660;SHT30;73632;50.808;3.422;2024-03-02T06:22:18;4.62;87.91
83660;SHT30;73632;50.808;3.422;2024-03-02T06:24:44;4.59;88.29
83660;SHT30;73632;50.808;3.422;2024-03-02T06:27:09;4.62;88.11
83660;SHT30;73632;50.808;3.422;2024-03-02T06:29:35;4.59;88.23
83660;SHT30;73632;50.808;3.422;2024-03-02T06:32:00;4.56;88.33
83660;SHT30;73632;50.808;3.422;2024-03-02T06:34:26;4.61;88.20
83660;SHT30;73632;50.808;3.422;2024-03-02T06:36:51;4.68;87.87
83660;SHT30;73632;50.808;3.422;2024-03-02T06:39:17;4.64;87.99
83660;SHT30;73632;50.808;3.422;2024-03-02T06:41:42;4.66;87.85
83660;SHT30;73632;50.808;3.422;2024-03-02T06:44:08;4.75;87.90
83660;SHT30;73632;50.808;3.422;2024-03-02T06:46:33;4.73;87.81
83660;SHT30;73632;50.808;3.422;2024-03-02T06:48:59;4.83;87.48
83660;SHT30;73632;50.808;3.422;2024-03-02T06:51:24;4.90;87.44
83660;SHT30;73632;50.808;3.422;2024-03-02T06:53:51;5.08;86.91
83660;SHT30;73632;50.808;3.422;2024-03-02T06:56:16;5.30;85.91
83660;SHT30;73632;50.808;3.422;2024-03-02T06:58:41;5.51;85.02
83660;SHT30;73632;50.808;3.422;2024-03-02T07:01:08;5.81;84.12
83660;SHT30;73632;50.808;3.422;2024-03-02T07:03:33;5.98;83.29
83660;SHT30;73632;50.808;3.422;2024-03-02T07:05:58;6.16;82.88
83660;SHT30;73632;50.808;3.422;2024-03-02T07:08:24;6.38;82.28
83660;SHT30;73632;50.808;3.422;2024-03-02T07:10:49;6.45;81.88
83660;SHT30;73632;50.808;3.422;2024-03-02T07:13:15;6.59;81.35
83660;SHT30;73632;50.808;3.422;2024-03-02T07:15:40;6.70;81.04
83660;SHT30;73632;50.808;3.422;2024-03-02T07:18:32;6.94;80.52
83660;SHT30;73632;50.808;3.422;2024-03-02T07:20:59;7.24;79.44
83660;SHT30;73632;50.808;3.422;2024-03-02T07:23:26;7.48;78.58
83660;SHT30;73632;50.808;3.422;2024-03-02T07:25:55;7.98;76.90
83660;SHT30;73632;50.808;3.422;2024-03-02T07:28:22;8.36;75.48
83660;SHT30;73632;50.808;3.422;2024-03-02T07:30:58;8.50;74.71
83660;SHT30;73632;50.808;3.422;2024-03-02T07:33:24;8.68;74.30
83660;SHT30;73632;50.808;3.422;2024-03-02T07:35:49;8.68;73.49
83660;SHT30;73632;50.808;3.422;2024-03-02T07:38:15;8.70;73.62
83660;SHT30;73632;50.808;3.422;2024-03-02T07:40:40;8.68;73.83
83660;SHT30;73632;50.808;3.422;2024-03-02T07:43:05;9.08;72.74
83660;SHT30;73632;50.808;3.422;2024-03-02T07:45:31;8.85;73.41
83660;SHT30;73632;50.808;3.422;2024-03-02T07:47:56;8.42;73.93
83660;SHT30;73632;50.808;3.422;2024-03-02T07:50:22;8.54;73.92
83660;SHT30;73632;50.808;3.422;2024-03-02T07:52:48;9.25;72.26
83660;SHT30;73632;50.808;3.422;2024-03-02T07:55:13;9.75;70.62
83660;SHT30;73632;50.808;3.422;2024-03-02T07:57:38;10.04;69.35
83660;SHT30;73632;50.808;3.422;2024-03-02T08:00:08;10.03;68.96
83660;SHT30;73632;50.808;3.422;2024-03-02T08:02:34;10.12;68.80
83660;SHT30;73632;50.808;3.422;2024-03-02T08:05:01;10.12;68.97
83660;SHT30;73632;50.808;3.422;2024-03-02T08:07:26;10.21;68.62
83660;SHT30;73632;50.808;3.422;2024-03-02T08:09:51;9.93;69.64
83660;SHT30;73632;50.808;3.422;2024-03-02T08:12:17;10.41;68.00
83660;SHT30;73632;50.808;3.422;2024-03-02T08:14:44;10.21;68.62
83660;SHT30;73632;50.808;3.422;2024-03-02T08:17:10;10.58;68.21
83660;SHT30;73632;50.808;3.422;2024-03-02T08:19:37;10.37;67.97
83660;SHT30;73632;50.808;3.422;2024-03-02T08:22:03;10.60;67.75
83660;SHT30;73632;50.808;3.422;2024-03-02T08:24:28;10.69;67.71
83660;SHT30;73632;50.808;3.422;2024-03-02T08:26:54;10.95;67.46
83660;SHT30;73632;50.808;3.422;2024-03-02T08:29:19;10.45;68.75
83660;SHT30;73632;50.808;3.422;2024-03-02T08:31:44;10.00;70.01
83660;SHT30;73632;50.808;3.422;2024-03-02T08:34:10;8.97;72.09
83660;SHT30;73632;50.808;3.422;2024-03-02T08:36:35;8.44;74.23
83660;SHT30;73632;50.808;3.422;2024-03-02T08:39:01;8.03;75.51
83660;SHT30;73632;50.808;3.422;2024-03-02T08:41:28;7.98;76.25
83660;SHT30;73632;50.808;3.422;2024-03-02T08:43:53;7.88;76.20
83660;SHT30;73632;50.808;3.422;2024-03-02T08:46:19;7.75;76.89
83660;SHT30;73632;50.808;3.422;2024-03-02T08:48:45;7.85;77.18
83660;SHT30;73632;50.808;3.422;2024-03-02T08:51:10;7.83;77.48
83660;SHT30;73632;50.808;3.422;2024-03-02T08:53:36;7.77;77.17
83660;SHT30;73632;50.808;3.422;2024-03-02T08:56:01;7.83;77.33
83660;SHT30;73632;50.808;3.422;2024-03-02T08:58:27;8.02;77.61
83660;SHT30;73632;50.808;3.422;2024-03-02T09:00:52;8.00;76.76
83660;SHT30;73632;50.808;3.422;2024-03-02T09:03:18;8.00;76.83
83660;SHT30;73632;50.808;3.422;2024-03-02T09:05:43;8.02;76.88
83660;SHT30;73632;50.808;3.422;2024-03-02T09:08:09;8.00;77.10
83660;SHT30;73632;50.808;3.422;2024-03-02T09:10:34;8.02;77.29
83660;SHT30;73632;50.808;3.422;2024-03-02T09:13:00;8.03;77.01
83660;SHT30;73632;50.808;3.422;2024-03-02T09:15:25;8.10;77.22
83660;SHT30;73632;50.808;3.422;2024-03-02T09:17:51;8.20;77.08
83660;SHT30;73632;50.808;3.422;2024-03-02T09:20:16;8.60;76.21
83660;SHT30;73632;50.808;3.422;2024-03-02T09:22:42;9.04;75.34
83660;SHT30;73632;50.808;3.422;2024-03-02T09:25:07;9.53;73.78
83660;SHT30;73632;50.808;3.422;2024-03-02T09:27:36;9.93;72.29
83660;SHT30;73632;50.808;3.422;2024-03-02T09:30:04;11.02;69.40
83660;SHT30;73632;50.808;3.422;2024-03-02T09:32:30;11.59;66.58
83660;SHT30;73632;50.808;3.422;2024-03-02T09:34:56;11.66;66.95
83660;SHT30;73632;50.808;3.422;2024-03-02T09:37:21;11.44;66.87
83660;SHT30;73632;50.808;3.422;2024-03-02T09:39:47;11.07;68.83
83660;SHT30;73632;50.808;3.422;2024-03-02T09:42:12;10.55;70.72
83660;SHT30;73632;50.808;3.422;2024-03-02T09:44:38;10.03;72.17
83660;SHT30;73632;50.808;3.422;2024-03-02T09:47:04;10.17;72.87
83660;SHT30;73632;50.808;3.422;2024-03-02T09:49:30;9.94;73.66
83660;SHT30;73632;50.808;3.422;2024-03-02T09:51:56;10.07;72.65
83660;SHT30;73632;50.808;3.422;2024-03-02T09:54:22;10.61;71.01
83660;SHT30;73632;50.808;3.422;2024-03-02T09:56:47;10.67;70.12
83660;SHT30;73632;50.808;3.422;2024-03-02T09:59:13;11.44;68.21
83660;SHT30;73632;50.808;3.422;2024-03-02T10:01:56;11.33;69.52
83660;SHT30;73632;50.808;3.422;2024-03-02T10:04:22;12.01;66.92
83660;SHT30;73632;50.808;3.422;2024-03-02T10:06:48;12.49;65.39
83660;SHT30;73632;50.808;3.422;2024-03-02T10:09:26;12.37;66.77
83660;SHT30;73632;50.808;3.422;2024-03-02T10:11:52;11.70;68.22
83660;SHT30;73632;50.808;3.422;2024-03-02T10:14:17;11.05;69.82
83660;SHT30;73632;50.808;3.422;2024-03-02T10:16:44;10.47;71.13
83660;SHT30;73632;50.808;3.422;2024-03-02T10:19:20;10.09;72.73
83660;SHT30;73632;50.808;3.422;2024-03-02T10:21:47;9.94;73.67
83660;SHT30;73632;50.808;3.422;2024-03-02T10:24:13;9.87;74.24
83660;SHT30;73632;50.808;3.422;2024-03-02T10:26:38;9.80;73.84
83660;SHT30;73632;50.808;3.422;2024-03-02T10:29:04;9.68;75.21
83660;SHT30;73632;50.808;3.422;2024-03-02T10:31:30;9.73;74.74
83660;SHT30;73632;50.808;3.422;2024-03-02T10:33:55;9.90;74.86
83660;SHT30;73632;50.808;3.422;2024-03-02T10:36:21;9.83;73.83
83660;SHT30;73632;50.808;3.422;2024-03-02T10:38:47;9.93;73.69
83660;SHT30;73632;50.808;3.422;2024-03-02T10:41:23;9.78;74.10
83660;SHT30;73632;50.808;3.422;2024-03-02T10:43:52;9.80;74.66
83660;SHT30;73632;50.808;3.422;2024-03-02T10:46:22;9.59;74.73
83660;SHT30;73632;50.808;3.422;2024-03-02T10:48:47;9.59;75.33
83660;SHT30;73632;50.808;3.422;2024-03-02T10:51:14;9.60;74.98
83660;SHT30;73632;50.808;3.422;2024-03-02T10:53:40;9.53;75.08
83660;SHT30;73632;50.808;3.422;2024-03-02T10:56:07;9.46;75.04
83660;SHT30;73632;50.808;3.422;2024-03-02T10:58:35;9.42;75.96
83660;SHT30;73632;50.808;3.422;2024-03-02T11:01:05;9.46;75.78
83660;SHT30;73632;50.808;3.422;2024-03-02T11:03:35;9.49;75.81
83660;SHT30;73632;50.808;3.422;2024-03-02T11:06:03;9.53;76.31
83660;SHT30;73632;50.808;3.422;2024-03-02T11:08:33;9.58;76.17
83660;SHT30;73632;50.808;3.422;2024-03-02T11:11:07;9.62;75.86
83660;SHT30;73632;50.808;3.422;2024-03-02T11:13:37;9.63;75.00
83660;SHT30;73632;50.808;3.422;2024-03-02T11:18:55;9.76;74.35
83660;SHT30;73632;50.808;3.422;2024-03-02T11:21:21;9.70;73.92
83660;SHT30;73632;50.808;3.422;2024-03-02T11:23:48;9.75;73.72
83660;SHT30;73632;50.808;3.422;2024-03-02T11:26:20;9.85;74.02
83660;SHT30;73632;50.808;3.422;2024-03-02T11:28:45;9.86;73.93
83660;SHT30;73632;50.808;3.422;2024-03-02T11:31:11;9.87;74.36
83660;SHT30;73632;50.808;3.422;2024-03-02T11:33:36;9.79;75.05
83660;SHT30;73632;50.808;3.422;2024-03-02T11:36:02;9.82;76.20
83660;SHT30;73632;50.808;3.422;2024-03-02T11:38:30;9.70;76.43
83660;SHT30;73632;50.808;3.422;2024-03-02T11:40:56;9.69;76.69
83660;SHT30;73632;50.808;3.422;2024-03-02T11:43:21;9.70;76.57
83660;SHT30;73632;50.808;3.422;2024-03-02T11:45:48;9.66;77.01
83660;SHT30;73632;50.808;3.422;2024-03-02T11:48:15;9.76;76.77
83660;SHT30;73632;50.808;3.422;2024-03-02T11:50:50;9.73;76.99
83660;SHT30;73632;50.808;3.422;2024-03-02T11:53:15;9.75;76.01
83660;SHT30;73632;50.808;3.422;2024-03-02T11:55:42;9.70;76.73
83660;SHT30;73632;50.808;3.422;2024-03-02T11:58:14;9.73;76.85
83660;SHT30;73632;50.808;3.422;2024-03-02T12:00:43;9.68;76.88
83660;SHT30;73632;50.808;3.422;2024-03-02T12:03:09;9.63;77.04
83660;SHT30;73632;50.808;3.422;2024-03-02T12:05:37;9.53;78.14
83660;SHT30;73632;50.808;3.422;2024-03-02T12:08:04;9.56;78.22
83660;SHT30;73632;50.808;3.422;2024-03-02T12:10:30;9.55;77.59
83660;SHT30;73632;50.808;3.422;2024-03-02T12:13:00;9.55;77.66
83660;SHT30;73632;50.808;3.422;2024-03-02T12:15:27;9.43;78.68
83660;SHT30;73632;50.808;3.422;2024-03-02T12:17:57;9.48;78.46
83660;SHT30;73632;50.808;3.422;2024-03-02T12:20:24;9.42;78.57
83660;SHT30;73632;50.808;3.422;2024-03-02T12:22:53;9.49;78.68
83660;SHT30;73632;50.808;3.422;2024-03-02T12:25:20;9.50;78.54
83660;SHT30;73632;50.808;3.422;2024-03-02T12:27:47;9.50;79.28
83660;SHT30;73632;50.808;3.422;2024-03-02T12:30:14;9.49;80.35
83660;SHT30;73632;50.808;3.422;2024-03-02T12:32:40;9.53;80.40
83660;SHT30;73632;50.808;3.422;2024-03-02T12:35:06;9.45;79.20
83660;SHT30;73632;50.808;3.422;2024-03-02T12:37:32;9.42;78.98
83660;SHT30;73632;50.808;3.422;2024-03-02T12:39:57;9.42;79.22
83660;SHT30;73632;50.808;3.422;2024-03-02T12:42:23;9.35;79.74
83660;SHT30;73632;50.808;3.422;2024-03-02T12:44:51;9.39;80.02
83660;SHT30;73632;50.808;3.422;2024-03-02T12:47:19;9.34;80.29
83660;SHT30;73632;50.808;3.422;2024-03-02T12:49:45;9.35;80.26
83660;SHT30;73632;50.808;3.422;2024-03-02T12:52:12;9.32;80.63
83660;SHT30;73632;50.808;3.422;2024-03-02T12:54:38;9.31;81.57
83660;SHT30;73632;50.808;3.422;2024-03-02T12:57:03;9.27;81.77
83660;SHT30;73632;50.808;3.422;2024-03-02T12:59:29;9.25;82.40
83660;SHT30;73632;50.808;3.422;2024-03-02T13:01:56;9.27;82.29
83660;SHT30;73632;50.808;3.422;2024-03-02T13:04:27;9.27;80.83
83660;SHT30;73632;50.808;3.422;2024-03-02T13:06:54;9.24;81.17
83660;SHT30;73632;50.808;3.422;2024-03-02T13:09:21;9.28;81.81
83660;SHT30;73632;50.808;3.422;2024-03-02T13:11:46;9.22;82.72
83660;SHT30;73632;50.808;3.422;2024-03-02T13:14:12;9.24;81.89
83660;SHT30;73632;50.808;3.422;2024-03-02T13:16:39;9.27;81.67
83660;SHT30;73632;50.808;3.422;2024-03-02T13:19:13;9.29;82.39
83660;SHT30;73632;50.808;3.422;2024-03-02T13:21:38;9.39;83.20
83660;SHT30;73632;50.808;3.422;2024-03-02T13:24:05;9.53;82.39
83660;SHT30;73632;50.808;3.422;2024-03-02T13:26:31;9.63;82.38
83660;SHT30;73632;50.808;3.422;2024-03-02T13:28:56;9.68;83.02
83660;SHT30;73632;50.808;3.422;2024-03-02T13:31:22;9.78;82.51
83660;SHT30;73632;50.808;3.422;2024-03-02T13:33:47;9.76;81.49
83660;SHT30;73632;50.808;3.422;2024-03-02T13:36:13;9.79;80.87
83660;SHT30;73632;50.808;3.422;2024-03-02T13:38:38;9.94;81.79
83660;SHT30;73632;50.808;3.422;2024-03-02T13:41:04;9.96;80.84
83660;SHT30;73632;50.808;3.422;2024-03-02T13:43:29;9.99;80.58
83660;SHT30;73632;50.808;3.422;2024-03-02T13:45:58;10.03;80.32
83660;SHT30;73632;50.808;3.422;2024-03-02T13:48:23;10.06;79.71
83660;SHT30;73632;50.808;3.422;2024-03-02T13:50:51;10.07;80.52
83660;SHT30;73632;50.808;3.422;2024-03-02T13:53:17;10.02;79.42
83660;SHT30;73632;50.808;3.422;2024-03-02T13:55:43;10.04;79.80
83660;SHT30;73632;50.808;3.422;2024-03-02T13:58:09;10.06;80.31
83660;SHT30;73632;50.808;3.422;2024-03-02T14:00:35;10.07;80.32
83660;SHT30;73632;50.808;3.422;2024-03-02T14:03:00;10.10;80.34
83660;SHT30;73632;50.808;3.422;2024-03-02T14:05:26;10.10;80.37
83660;SHT30;73632;50.808;3.422;2024-03-02T14:07:51;10.09;80.79
83660;SHT30;73632;50.808;3.422;2024-03-02T14:10:17;10.03;80.49
83660;SHT30;73632;50.808;3.422;2024-03-02T14:12:47;10.06;80.99
83660;SHT30;73632;50.808;3.422;2024-03-02T14:15:12;10.02;81.35
83660;SHT30;73632;50.808;3.422;2024-03-02T14:17:38;10.10;81.07
83660;SHT30;73632;50.808;3.422;2024-03-02T14:20:04;10.16;80.08
83660;SHT30;73632;50.808;3.422;2024-03-02T14:22:30;10.20;80.14
83660;SHT30;73632;50.808;3.422;2024-03-02T14:24:56;10.27;79.89
83660;SHT30;73632;50.808;3.422;2024-03-02T14:27:22;10.23;79.72
83660;SHT30;73632;50.808;3.422;2024-03-02T14:29:47;10.21;79.96
83660;SHT30;73632;50.808;3.422;2024-03-02T14:32:13;10.30;79.71
83660;SHT30;73632;50.808;3.422;2024-03-02T14:34:39;10.24;79.56
83660;SHT30;73632;50.808;3.422;2024-03-02T14:37:04;10.33;79.74
83660;SHT30;73632;50.808;3.422;2024-03-02T14:39:30;10.26;79.70
83660;SHT30;73632;50.808;3.422;2024-03-02T14:42:00;10.23;79.75
83660;SHT30;73632;50.808;3.422;2024-03-02T14:44:25;10.32;79.80
83660;SHT30;73632;50.808;3.422;2024-03-02T14:46:51;10.43;79.51
83660;SHT30;73632;50.808;3.422;2024-03-02T14:49:17;10.51;78.83
83660;SHT30;73632;50.808;3.422;2024-03-02T14:51:44;10.54;78.90
83660;SHT30;73632;50.808;3.422;2024-03-02T14:54:09;10.53;79.07
83660;SHT30;73632;50.808;3.422;2024-03-02T14:56:34;10.50;78.90
83660;SHT30;73632;50.808;3.422;2024-03-02T14:59:00;10.48;79.81
83660;SHT30;73632;50.808;3.422;2024-03-02T15:01:25;10.50;79.09
83660;SHT30;73632;50.808;3.422;2024-03-02T15:03:51;10.50;78.29
83660;SHT30;73632;50.808;3.422;2024-03-02T15:06:17;10.50;78.68
83660;SHT30;73632;50.808;3.422;2024-03-02T15:08:43;10.50;78.25
83660;SHT30;73632;50.808;3.422;2024-03-02T15:11:09;10.57;77.89
83660;SHT30;73632;50.808;3.422;2024-03-02T15:13:34;10.64;77.69
83660;SHT30;73632;50.808;3.422;2024-03-02T15:16:00;10.68;77.45
83660;SHT30;73632;50.808;3.422;2024-03-02T15:18:26;10.61;77.30
83660;SHT30;73632;50.808;3.422;2024-03-02T15:20:52;10.54;77.88
83660;SHT30;73632;50.808;3.422;2024-03-02T15:23:18;10.55;78.01
83660;SHT30;73632;50.808;3.422;2024-03-02T15:25:43;10.54;77.39
83660;SHT30;73632;50.808;3.422;2024-03-02T15:28:08;10.54;77.84
83660;SHT30;73632;50.808;3.422;2024-03-02T15:30:34;10.57;77.65
83660;SHT30;73632;50.808;3.422;2024-03-02T15:33:00;10.65;77.28
83660;SHT30;73632;50.808;3.422;2024-03-02T15:35:25;10.67;76.34
83660;SHT30;73632;50.808;3.422;2024-03-02T15:37:51;10.60;76.47
83660;SHT30;73632;50.808;3.422;2024-03-02T15:40:17;10.61;76.51
83660;SHT30;73632;50.808;3.422;2024-03-02T15:42:42;10.64;76.09